Date,TemperatureHighF,TemperatureAvgF,TemperatureLowF,DewpointHighF,DewpointAvgF,DewpointLowF,HumidityHigh,HumidityAvg,HumidityLow,PressureMaxIn,PressureMinIn,WindSpeedMaxMPH,WindSpeedAvgMPH,GustSpeedMaxMPH,PrecipitationSumIn
2013-7-1,90.5,76.8,59.7,63.6,55.8,42.0,93,54,28,30.07,30.00,6,1,12,0.00
2013-7-2,88.5,75.5,59.0,58.8,52.8,40.7,81,49,23,30.07,29.92,7,1,11,0.00
2013-7-3,91.9,71.8,57.0,63.0,55.2,45.0,97,63,21,29.98,29.83,4,1,9,0.00
2013-7-4,95.9,80.7,64.2,64.8,57.9,53.1,79,49,25,29.86,29.71,6,1,12,0.00
2013-7-5,93.9,82.6,71.2,66.3,61.5,57.1,66,50,35,29.79,29.65,7,2,12,0.00
2013-7-6,96.4,84.3,73.9,67.8,64.5,62.2,71,53,37,29.75,29.66,4,1,11,0.00
2013-7-7,98.4,84.8,73.0,71.8,68.1,53.6,88,59,39,29.77,29.66,4,1,9,62.90
2013-7-8,95.2,79.5,66.9,71.9,68.6,64.9,97,72,41,29.88,29.77,5,1,8,0.00
2013-7-9,90.9,79.1,70.2,76.7,71.3,68.3,99,79,53,29.84,29.64,8,2,13,0.44
2013-7-10,87.4,78.4,67.1,60.7,56.3,53.1,78,49,32,29.95,29.87,4,1,9,0.00
2013-7-11,91.9,78.0,59.0,67.2,57.9,52.1,99,56,28,30.02,29.85,4,1,8,63.34
2013-7-12,95.2,82.4,70.3,64.3,60.6,57.0,69,49,35,29.91,29.77,6,2,15,0.00
2013-7-13,86.5,74.9,66.2,74.4,65.4,58.7,99,74,54,29.96,29.80,4,1,11,2.88
2013-7-14,93.6,79.4,70.5,69.4,65.7,62.0,84,65,39,30.07,29.95,4,1,8,0.01
2013-7-15,96.6,83.2,66.6,71.6,67.4,63.8,99,63,36,30.12,30.02,4,1,7,0.00
2013-7-16,97.7,86.5,75.9,75.1,71.9,68.6,91,65,40,30.09,30.03,4,1,8,0.03
2013-7-17,98.4,85.0,75.2,73.5,71.9,68.8,91,68,40,30.13,29.98,4,1,8,0.06
2013-7-18,99.0,88.3,78.1,74.4,71.5,67.9,83,60,39,29.98,29.63,8,2,15,0.00
2013-7-19,90.0,83.3,74.5,73.4,65.6,59.0,83,57,36,29.77,29.58,5,2,11,66.22
2013-7-20,85.8,75.4,65.3,66.1,61.2,53.0,92,63,42,29.84,29.75,6,1,9,66.23
2013-7-21,88.2,75.3,59.4,69.9,63.1,56.8,99,67,49,29.84,29.67,5,2,8,0.17
2013-7-22,93.9,77.9,67.5,73.9,65.7,56.5,95,69,40,29.74,29.53,7,2,13,0.00
2013-7-23,82.0,71.5,61.2,57.7,54.0,50.5,84,56,37,29.92,29.74,8,2,11,0.00
2013-7-24,85.6,70.0,59.5,60.8,56.3,52.1,83,64,39,29.98,29.84,3,0,5,0.00
2013-7-25,88.0,76.2,63.3,68.7,62.1,56.8,87,64,37,29.88,29.77,4,1,9,0.00
2013-7-26,72.9,66.2,58.1,68.1,57.1,46.8,98,74,52,29.99,29.79,8,2,17,0.11
2013-7-27,67.3,58.6,52.9,53.7,49.3,46.4,86,72,49,29.99,29.83,8,2,12,0.04
2013-7-28,79.9,63.6,52.3,54.8,50.5,46.9,89,65,39,29.98,29.85,5,2,10,0.00
2013-7-29,84.9,69.4,52.2,65.4,54.7,51.6,99,64,35,30.02,29.94,5,1,8,0.00
2013-7-30,75.9,69.2,64.6,66.5,63.4,56.5,95,82,63,30.01,29.94,4,0,5,0.00
2013-7-31,84.7,71.3,61.2,70.2,60.5,49.0,99,72,34,29.98,29.85,7,1,13,0.00